Time;durP1;ratioP1;P1;durP2;ratioP2;P2;SDS_P1;SDS_P2;PMS_P1;PMS_P2;Temp;Humidity;BMP_temperature;BMP_pressure;BME280_temperature;BME280_humidity;BME280_pressure;Samples;Min_cycle;Max_cycle;Signal;HPM_P1;HPM_P2
2024/03/31 00:00:20;;;;;;;;;2.33;2.33;;;;;;;;5099593;27;46198;-52
2024/03/31 00:02:46;;;;;;;;;5.33;4.67;;;;;;;;5100658;27;45390;-52
2024/03/31 00:05:11;;;;;;;;;5.67;5.33;;;;;;;;5099792;27;45279;-51
2024/03/31 00:07:36;;;;;;;;;5.00;5.00;;;;;;;;5100751;27;45275;-51
2024/03/31 00:10:02;;;;;;;;;5.00;3.67;;;;;;;;5096116;27;45422;-52
2024/03/31 00:12:27;;;;;;;;;5.67;4.67;;;;;;;;5100241;27;45216;-52
2024/03/31 00:14:52;;;;;;;;;4.00;4.00;;;;;;;;5080203;27;45240;-53
2024/03/31 00:17:18;;;;;;;;;9.00;5.00;;;;;;;;5088836;27;45467;-52
2024/03/31 00:19:43;;;;;;;;;3.00;3.00;;;;;;;;5099386;27;46133;-53
2024/03/31 00:22:08;;;;;;;;;7.00;6.00;;;;;;;;5099467;27;45298;-53
2024/03/31 00:24:34;;;;;;;;;4.33;4.00;;;;;;;;5100111;27;45247;-52
2024/03/31 00:26:59;;;;;;;;;4.33;4.33;;;;;;;;5100514;27;45196;-52
2024/03/31 00:29:24;;;;;;;;;5.33;5.33;;;;;;;;5099195;27;46166;-52
2024/03/31 00:31:49;;;;;;;;;6.00;6.00;;;;;;;;5081628;27;45504;-52
2024/03/31 00:34:14;;;;;;;;;6.00;6.00;;;;;;;;5099192;27;45647;-53
2024/03/31 00:36:40;;;;;;;;;6.67;6.00;;;;;;;;5100055;27;45236;-53
2024/03/31 00:39:06;;;;;;;;;8.00;7.00;;;;;;;;5080772;27;46982;-50
2024/03/31 00:41:31;;;;;;;;;10.33;7.67;;;;;;;;5101329;27;45575;-50
2024/03/31 00:43:57;;;;;;;;;7.00;6.00;;;;;;;;5091752;27;45288;-50
2024/03/31 00:46:22;;;;;;;;;6.00;6.00;;;;;;;;5099749;27;45496;-53
2024/03/31 00:48:47;;;;;;;;;9.33;7.00;;;;;;;;5099710;27;45365;-50
2024/03/31 00:51:12;;;;;;;;;5.33;5.33;;;;;;;;5099202;27;45424;-52
2024/03/31 00:53:38;;;;;;;;;6.00;6.00;;;;;;;;5100105;27;45324;-51
2024/03/31 00:56:03;;;;;;;;;7.00;7.00;;;;;;;;5099673;27;45398;-50
2024/03/31 00:58:28;;;;;;;;;7.67;7.00;;;;;;;;5099456;27;47273;-50
2024/03/31 01:00:54;;;;;;;;;6.67;6.33;;;;;;;;5099373;27;45341;-50
2024/03/31 01:03:26;;;;;;;;;8.67;7.33;;;;;;;;5099357;27;45445;-51
2024/03/31 01:05:51;;;;;;;;;9.00;6.00;;;;;;;;5082407;27;45286;-52
2024/03/31 01:08:16;;;;;;;;;8.00;8.00;;;;;;;;5102685;27;45230;-51
2024/03/31 01:10:42;;;;;;;;;8.67;6.33;;;;;;;;5100277;27;45377;-52
2024/03/31 01:13:07;;;;;;;;;10.33;10.33;;;;;;;;5102767;27;45352;-50
2024/03/31 01:15:32;;;;;;;;;7.00;7.00;;;;;;;;5103270;27;45352;-49
2024/03/31 01:17:57;;;;;;;;;7.33;7.00;;;;;;;;5102097;27;45283;-49
2024/03/31 01:20:23;;;;;;;;;9.00;7.67;;;;;;;;5102389;27;45424;-52
2024/03/31 01:22:48;;;;;;;;;11.00;9.00;;;;;;;;5102364;27;45298;-50
2024/03/31 01:25:13;;;;;;;;;12.33;10.33;;;;;;;;5102646;27;45435;-50
2024/03/31 01:27:38;;;;;;;;;11.00;11.00;;;;;;;;5101995;27;46591;-49
2024/03/31 01:30:04;;;;;;;;;8.33;8.33;;;;;;;;5101519;27;45591;-49
2024/03/31 01:32:29;;;;;;;;;13.00;10.67;;;;;;;;5103038;27;46121;-53
2024/03/31 01:34:54;;;;;;;;;10.00;10.00;;;;;;;;5101822;27;45403;-52
2024/03/31 01:37:19;;;;;;;;;15.00;9.00;;;;;;;;5102166;27;46341;-53
2024/03/31 01:39:45;;;;;;;;;13.00;9.33;;;;;;;;5096298;27;45373;-52
2024/03/31 01:42:10;;;;;;;;;11.33;11.33;;;;;;;;5095300;27;45470;-52
2024/03/31 01:44:35;;;;;;;;;13.67;11.33;;;;;;;;5090048;27;45577;-53
2024/03/31 01:47:00;;;;;;;;;12.33;10.67;;;;;;;;5102859;27;45626;-53
2024/03/31 01:49:25;;;;;;;;;12.00;9.67;;;;;;;;5102177;27;45416;-50
2024/03/31 01:51:50;;;;;;;;;12.33;10.00;;;;;;;;5102697;27;45448;-53
2024/03/31 01:54:15;;;;;;;;;11.33;9.00;;;;;;;;5101919;27;45630;-52
2024/03/31 01:56:42;;;;;;;;;6.33;6.33;;;;;;;;5102590;27;45449;-54
2024/03/31 01:59:07;;;;;;;;;10.00;10.00;;;;;;;;5101851;27;45327;-53
2024/03/31 02:01:32;;;;;;;;;9.00;9.00;;;;;;;;5090763;27;45595;-52
2024/03/31 02:03:57;;;;;;;;;6.33;6.33;;;;;;;;5102213;27;45575;-51
2024/03/31 02:06:22;;;;;;;;;8.00;7.00;;;;;;;;5101788;27;45408;-52
2024/03/31 02:08:49;;;;;;;;;8.00;7.00;;;;;;;;5102163;27;45540;-52
2024/03/31 02:11:14;;;;;;;;;8.33;7.00;;;;;;;;5097790;27;45359;-52
2024/03/31 02:13:39;;;;;;;;;4.67;4.67;;;;;;;;5090186;27;45228;-51
2024/03/31 02:16:05;;;;;;;;;7.00;6.00;;;;;;;;5101104;27;45472;-52
2024/03/31 02:18:30;;;;;;;;;9.33;6.67;;;;;;;;5101298;27;45329;-50
2024/03/31 02:20:55;;;;;;;;;6.00;6.00;;;;;;;;5101271;27;45484;-52
2024/03/31 02:23:20;;;;;;;;;5.00;5.00;;;;;;;;5101483;27;45425;-52
2024/03/31 02:25:45;;;;;;;;;7.00;4.33;;;;;;;;5102143;27;46581;-49
2024/03/31 02:28:11;;;;;;;;;6.00;5.00;;;;;;;;5082910;27;45277;-49
2024/03/31 02:30:36;;;;;;;;;7.33;6.00;;;;;;;;5102316;27;45597;-52
2024/03/31 02:33:01;;;;;;;;;8.00;6.00;;;;;;;;5101674;27;45546;-52
2024/03/31 02:35:26;;;;;;;;;7.33;6.67;;;;;;;;5101634;27;45379;-53
2024/03/31 02:37:51;;;;;;;;;5.00;5.00;;;;;;;;5083086;27;45530;-53
2024/03/31 02:40:17;;;;;;;;;6.67;4.67;;;;;;;;5101841;27;45137;-52
2024/03/31 02:42:42;;;;;;;;;7.00;5.67;;;;;;;;5101245;27;45639;-50
2024/03/31 02:45:07;;;;;;;;;6.67;3.00;;;;;;;;5083018;27;47377;-50
2024/03/31 02:47:32;;;;;;;;;7.33;6.00;;;;;;;;5101564;27;45373;-52
2024/03/31 02:49:58;;;;;;;;;6.00;5.67;;;;;;;;5101743;27;45363;-49
2024/03/31 02:52:23;;;;;;;;;8.33;6.67;;;;;;;;5101183;27;45437;-51
2024/03/31 02:54:48;;;;;;;;;8.67;7.00;;;;;;;;5101627;27;46702;-52
2024/03/31 02:57:13;;;;;;;;;5.67;5.67;;;;;;;;5100799;27;45544;-50
2024/03/31 02:59:38;;;;;;;;;7.33;6.00;;;;;;;;5101584;27;45393;-51
2024/03/31 03:02:04;;;;;;;;;5.33;5.00;;;;;;;;5088716;27;45327;-51
2024/03/31 03:04:29;;;;;;;;;8.67;5.67;;;;;;;;5101627;27;46656;-52
2024/03/31 03:06:54;;;;;;;;;6.33;4.00;;;;;;;;5101211;27;45330;-51
2024/03/31 03:09:19;;;;;;;;;8.00;6.33;;;;;;;;5082547;27;45330;-49
2024/03/31 03:11:45;;;;;;;;;5.00;5.00;;;;;;;;5101261;27;45444;-50
2024/03/31 03:14:10;;;;;;;;;9.33;5.67;;;;;;;;5100973;27;46399;-50
2024/03/31 03:16:35;;;;;;;;;5.00;5.00;;;;;;;;5088555;27;45331;-52
2024/03/31 03:19:00;;;;;;;;;5.67;5.00;;;;;;;;5083096;27;45564;-50
2024/03/31 03:21:25;;;;;;;;;8.00;6.00;;;;;;;;5099455;27;45447;-51
2024/03/31 03:23:50;;;;;;;;;7.00;5.67;;;;;;;;5100960;27;47005;-52
2024/03/31 03:26:16;;;;;;;;;10.33;7.00;;;;;;;;5098764;27;45614;-52
2024/03/31 03:28:41;;;;;;;;;4.67;4.67;;;;;;;;5100891;27;45541;-49
2024/03/31 03:31:06;;;;;;;;;6.33;5.00;;;;;;;;5100543;27;45416;-50
2024/03/31 03:33:32;;;;;;;;;6.00;6.00;;;;;;;;5100511;27;45452;-50
2024/03/31 03:36:01;;;;;;;;;10.00;5.67;;;;;;;;5099894;27;45402;-50
2024/03/31 03:38:26;;;;;;;;;7.67;5.00;;;;;;;;5101152;27;45247;-52
2024/03/31 03:40:51;;;;;;;;;7.00;4.00;;;;;;;;5088382;27;45271;-49
2024/03/31 03:43:16;;;;;;;;;7.67;5.00;;;;;;;;5091079;27;45271;-51
2024/03/31 03:45:42;;;;;;;;;5.00;5.00;;;;;;;;5097067;27;45421;-53
2024/03/31 03:48:07;;;;;;;;;6.67;6.67;;;;;;;;5100609;27;45509;-51
2024/03/31 03:50:34;;;;;;;;;7.67;6.00;;;;;;;;5100765;27;45879;-50
2024/03/31 03:52:59;;;;;;;;;9.00;7.33;;;;;;;;5100808;27;46379;-53
2024/03/31 03:55:25;;;;;;;;;7.00;5.00;;;;;;;;5100031;27;45341;-50
2024/03/31 03:57:50;;;;;;;;;6.00;6.00;;;;;;;;5100733;27;45445;-53
2024/03/31 04:00:15;;;;;;;;;6.67;5.67;;;;;;;;5098058;27;45362;-52
2024/03/31 04:02:40;;;;;;;;;8.67;5.00;;;;;;;;5108598;27;45469;-51
2024/03/31 04:05:05;;;;;;;;;8.67;7.00;;;;;;;;5099831;27;45559;-52
2024/03/31 04:07:31;;;;;;;;;11.00;7.67;;;;;;;;5100505;27;45244;-51
2024/03/31 04:09:56;;;;;;;;;6.33;6.33;;;;;;;;5097199;27;45322;-52
2024/03/31 04:12:21;;;;;;;;;6.33;5.00;;;;;;;;5099969;27;45322;-51
2024/03/31 04:14:46;;;;;;;;;6.67;5.67;;;;;;;;5100058;27;45325;-52
2024/03/31 04:17:11;;;;;;;;;6.00;6.00;;;;;;;;5100318;27;45273;-51
2024/03/31 04:19:36;;;;;;;;;7.67;6.00;;;;;;;;5100555;27;45238;-52
2024/03/31 04:22:02;;;;;;;;;7.67;6.00;;;;;;;;5098742;27;45322;-51
2024/03/31 04:24:28;;;;;;;;;5.00;5.00;;;;;;;;5098681;27;45284;-52
2024/03/31 04:26:53;;;;;;;;;7.00;6.00;;;;;;;;5100311;27;45606;-50
2024/03/31 04:29:18;;;;;;;;;9.00;6.00;;;;;;;;5099386;27;45461;-53
2024/03/31 04:31:56;;;;;;;;;6.33;6.00;;;;;;;;5100162;27;45400;-52
2024/03/31 04:34:22;;;;;;;;;7.00;6.00;;;;;;;;5099483;27;45212;-49
2024/03/31 04:36:49;;;;;;;;;7.00;7.00;;;;;;;;5099808;27;45236;-51
2024/03/31 04:39:15;;;;;;;;;6.33;6.33;;;;;;;;5096916;27;45344;-52
2024/03/31 04:41:40;;;;;;;;;7.00;7.00;;;;;;;;5089085;27;46027;-52
2024/03/31 04:44:05;;;;;;;;;8.67;7.00;;;;;;;;5087091;27;45437;-52
2024/03/31 04:46:31;;;;;;;;;6.00;6.00;;;;;;;;5100082;27;45334;-51
2024/03/31 04:48:56;;;;;;;;;7.00;6.33;;;;;;;;5099982;27;45358;-50
2024/03/31 04:51:21;;;;;;;;;12.67;5.67;;;;;;;;5099203;27;45366;-51
2024/03/31 04:53:46;;;;;;;;;5.00;5.00;;;;;;;;5099699;27;45473;-52
2024/03/31 04:56:12;;;;;;;;;3.67;3.67;;;;;;;;5099713;27;45329;-53
2024/03/31 04:58:37;;;;;;;;;9.00;6.00;;;;;;;;5099515;27;45670;-51
2024/03/31 05:01:02;;;;;;;;;6.33;6.00;;;;;;;;5090904;27;45569;-52
2024/03/31 05:03:27;;;;;;;;;8.00;7.00;;;;;;;;5096641;27;45662;-51
2024/03/31 05:05:53;;;;;;;;;5.33;5.33;;;;;;;;5099673;27;45445;-51
2024/03/31 05:08:18;;;;;;;;;5.33;5.33;;;;;;;;5088708;27;45432;-49
2024/03/31 05:10:59;;;;;;;;;4.00;2.67;;;;;;;;5096579;27;45941;-52
2024/03/31 05:13:28;;;;;;;;;7.33;7.33;;;;;;;;5088400;27;45331;-51
2024/03/31 05:16:07;;;;;;;;;8.00;6.00;;;;;;;;5099673;27;45419;-53
2024/03/31 05:18:32;;;;;;;;;6.67;6.33;;;;;;;;5099291;27;45255;-52
2024/03/31 05:20:58;;;;;;;;;5.00;5.00;;;;;;;;5098420;27;46354;-50
2024/03/31 05:23:23;;;;;;;;;9.33;5.33;;;;;;;;5098770;27;45298;-53
2024/03/31 05:25:48;;;;;;;;;6.00;5.33;;;;;;;;5080383;27;45337;-53
2024/03/31 05:28:14;;;;;;;;;7.33;6.00;;;;;;;;5098060;27;45534;-51
2024/03/31 05:30:39;;;;;;;;;6.67;6.67;;;;;;;;5099124;27;45505;-49
2024/03/31 05:33:04;;;;;;;;;5.00;5.00;;;;;;;;5098818;27;45437;-52
2024/03/31 05:35:29;;;;;;;;;9.33;7.33;;;;;;;;5099350;27;45358;-51
2024/03/31 05:37:54;;;;;;;;;9.00;6.33;;;;;;;;5099211;27;45526;-52
2024/03/31 05:40:20;;;;;;;;;8.33;8.33;;;;;;;;5098707;27;45424;-52
2024/03/31 05:42:45;;;;;;;;;6.33;4.00;;;;;;;;5080004;27;45959;-50
2024/03/31 05:45:10;;;;;;;;;7.00;5.00;;;;;;;;5099059;27;45427;-52
2024/03/31 05:47:35;;;;;;;;;6.00;6.00;;;;;;;;5099049;27;45298;-50
2024/03/31 05:50:00;;;;;;;;;11.00;6.00;;;;;;;;5088493;27;46404;-53
2024/03/31 05:52:25;;;;;;;;;5.00;5.00;;;;;;;;5097459;27;45385;-51
2024/03/31 05:54:50;;;;;;;;;8.67;6.00;;;;;;;;5103189;27;45286;-52
2024/03/31 05:57:16;;;;;;;;;6.67;6.67;;;;;;;;5102024;27;45240;-50
2024/03/31 05:59:41;;;;;;;;;6.00;6.00;;;;;;;;5102614;27;45711;-51
2024/03/31 06:02:06;;;;;;;;;5.00;5.00;;;;;;;;5072053;27;45280;-52
2024/03/31 06:04:33;;;;;;;;;6.00;4.67;;;;;;;;5103112;27;45370;-53
2024/03/31 06:06:58;;;;;;;;;5.00;5.00;;;;;;;;5083813;27;45525;-53
2024/03/31 06:09:24;;;;;;;;;5.33;5.00;;;;;;;;5081089;27;46232;-52
2024/03/31 06:11:49;;;;;;;;;13.00;5.00;;;;;;;;5100727;27;45391;-53
2024/03/31 06:14:14;;;;;;;;;5.33;5.33;;;;;;;;5102021;27;45374;-50
2024/03/31 06:16:39;;;;;;;;;9.00;6.33;;;;;;;;5089323;27;45347;-52
2024/03/31 06:19:04;;;;;;;;;8.00;7.00;;;;;;;;5101916;27;46241;-50
2024/03/31 06:21:29;;;;;;;;;8.00;5.33;;;;;;;;5101044;27;45351;-53
2024/03/31 06:23:54;;;;;;;;;7.33;4.33;;;;;;;;5102278;27;45383;-52
2024/03/31 06:26:20;;;;;;;;;5.00;5.00;;;;;;;;5101481;27;45758;-53
2024/03/31 06:28:45;;;;;;;;;7.67;5.00;;;;;;;;5101429;27;46378;-52
2024/03/31 06:31:10;;;;;;;;;8.67;6.00;;;;;;;;5100878;27;45341;-53
2024/03/31 06:33:35;;;;;;;;;12.00;7.00;;;;;;;;5102249;27;45238;-53
2024/03/31 06:36:00;;;;;;;;;5.00;5.00;;;;;;;;5101424;27;45639;-51
2024/03/31 06:38:26;;;;;;;;;6.00;4.00;;;;;;;;5101493;27;46180;-52
2024/03/31 06:40:51;;;;;;;;;5.00;5.00;;;;;;;;5101805;27;45935;-50
2024/03/31 06:43:16;;;;;;;;;4.00;4.00;;;;;;;;5101218;27;45531;-54
2024/03/31 06:45:42;;;;;;;;;7.67;6.00;;;;;;;;5101784;27;45397;-53
2024/03/31 06:48:07;;;;;;;;;6.33;5.00;;;;;;;;5092866;27;45490;-51
2024/03/31 06:50:32;;;;;;;;;6.00;6.00;;;;;;;;5097219;27;45173;-51
2024/03/31 06:52:57;;;;;;;;;7.00;4.00;;;;;;;;5102010;27;45484;-51
2024/03/31 06:55:22;;;;;;;;;5.00;4.00;;;;;;;;5101092;27;45365;-52
2024/03/31 06:57:48;;;;;;;;;4.00;4.00;;;;;;;;5101640;27;45469;-52
2024/03/31 07:00:13;;;;;;;;;3.67;3.00;;;;;;;;5100635;27;45485;-52
2024/03/31 07:02:38;;;;;;;;;0.67;0.00;;;;;;;;5101868;27;45389;-52
2024/03/31 07:05:04;;;;;;;;;6.33;5.33;;;;;;;;5100331;27;45267;-49
2024/03/31 07:07:29;;;;;;;;;5.00;4.00;;;;;;;;5101360;27;46176;-50
2024/03/31 07:09:54;;;;;;;;;6.00;4.00;;;;;;;;5097076;27;45354;-51
2024/03/31 07:12:19;;;;;;;;;4.67;4.00;;;;;;;;5101091;27;45460;-52
2024/03/31 07:14:44;;;;;;;;;6.00;5.00;;;;;;;;5100791;27;45311;-53
2024/03/31 07:17:10;;;;;;;;;5.00;5.00;;;;;;;;5088420;27;45660;-51
2024/03/31 07:19:36;;;;;;;;;5.00;4.00;;;;;;;;5100022;27;45284;-53
2024/03/31 07:22:01;;;;;;;;;6.67;6.33;;;;;;;;5100427;27;45284;-53
2024/03/31 07:24:26;;;;;;;;;8.00;5.67;;;;;;;;5100417;27;45295;-53
2024/03/31 07:26:52;;;;;;;;;7.67;5.67;;;;;;;;5101056;27;45606;-53
2024/03/31 07:29:17;;;;;;;;;5.00;4.67;;;;;;;;5099576;27;45271;-53
2024/03/31 07:31:42;;;;;;;;;6.00;4.33;;;;;;;;5100720;27;45363;-52
2024/03/31 07:34:07;;;;;;;;;5.67;5.67;;;;;;;;5099896;27;45271;-53
2024/03/31 07:36:32;;;;;;;;;4.00;4.00;;;;;;;;5100848;27;45505;-53
2024/03/31 07:38:58;;;;;;;;;10.00;5.33;;;;;;;;5099684;27;45319;-49
2024/03/31 07:41:23;;;;;;;;;11.00;6.00;;;;;;;;5099808;27;45856;-49
2024/03/31 07:43:49;;;;;;;;;6.33;6.00;;;;;;;;5100265;27;45278;-51
2024/03/31 07:46:14;;;;;;;;;7.00;5.33;;;;;;;;5100233;27;47354;-52
2024/03/31 07:48:39;;;;;;;;;4.00;4.00;;;;;;;;5082569;27;45229;-51
2024/03/31 07:51:04;;;;;;;;;6.67;4.33;;;;;;;;5100190;27;45262;-52
2024/03/31 07:53:30;;;;;;;;;4.33;4.00;;;;;;;;5100602;27;45388;-52
2024/03/31 07:55:56;;;;;;;;;6.67;4.33;;;;;;;;5100746;27;46728;-52
2024/03/31 07:58:21;;;;;;;;;3.67;3.67;;;;;;;;5100015;27;45248;-53
2024/03/31 08:00:46;;;;;;;;;9.33;4.00;;;;;;;;5093427;27;45567;-50
2024/03/31 08:03:13;;;;;;;;;4.33;4.00;;;;;;;;5094753;27;45449;-53
2024/03/31 08:05:39;;;;;;;;;4.67;2.67;;;;;;;;5100255;27;46328;-51
2024/03/31 08:08:05;;;;;;;;;3.00;2.67;;;;;;;;5099764;27;45326;-52
2024/03/31 08:10:30;;;;;;;;;2.00;2.00;;;;;;;;5097528;27;45439;-51
2024/03/31 08:12:56;;;;;;;;;2.33;0.33;;;;;;;;5088018;27;45461;-52
2024/03/31 08:15:21;;;;;;;;;1.00;1.00;;;;;;;;5093223;27;45827;-52
2024/03/31 08:17:46;;;;;;;;;4.00;2.00;;;;;;;;5093036;27;45355;-52
2024/03/31 08:20:11;;;;;;;;;4.33;3.67;;;;;;;;5080345;27;45429;-51
2024/03/31 08:22:36;;;;;;;;;3.33;2.00;;;;;;;;5099837;27;45558;-52
2024/03/31 08:25:01;;;;;;;;;1.33;1.33;;;;;;;;5099477;27;45953;-51
2024/03/31 08:27:27;;;;;;;;;2.00;2.00;;;;;;;;5099731;27;45337;-51
2024/03/31 08:29:54;;;;;;;;;3.67;2.00;;;;;;;;5099482;27;45500;-49
2024/03/31 08:32:20;;;;;;;;;3.00;1.00;;;;;;;;5099819;27;45212;-50
2024/03/31 08:34:45;;;;;;;;;1.00;1.00;;;;;;;;5099197;27;47309;-53
2024/03/31 08:37:10;;;;;;;;;3.00;1.33;;;;;;;;5086731;27;45394;-53
2024/03/31 08:39:36;;;;;;;;;2.33;1.00;;;;;;;;5099752;27;45810;-52
2024/03/31 08:42:09;;;;;;;;;3.00;1.00;;;;;;;;5081005;27;45406;-52
2024/03/31 08:44:34;;;;;;;;;2.33;1.33;;;;;;;;5087327;27;46413;-52
2024/03/31 08:47:01;;;;;;;;;2.33;1.67;;;;;;;;5099645;27;45420;-51
2024/03/31 08:49:26;;;;;;;;;3.00;1.00;;;;;;;;5100148;27;45432;-52
2024/03/31 08:51:51;;;;;;;;;2.00;1.00;;;;;;;;5099514;27;45206;-54
2024/03/31 08:54:17;;;;;;;;;2.33;1.33;;;;;;;;5099342;27;46314;-50
2024/03/31 08:56:42;;;;;;;;;2.00;1.00;;;;;;;;5099721;27;45311;-52
2024/03/31 08:59:07;;;;;;;;;1.00;1.00;;;;;;;;5099173;27;45275;-53
2024/03/31 09:01:33;;;;;;;;;1.67;1.00;;;;;;;;5082211;27;45299;-53
2024/03/31 09:03:59;;;;;;;;;0.33;0.33;;;;;;;;5099428;27;45376;-50
2024/03/31 09:06:24;;;;;;;;;1.00;1.00;;;;;;;;5098855;27;45429;-49
2024/03/31 09:09:15;;;;;;;;;2.00;1.00;;;;;;;;5099370;27;45428;-51
2024/03/31 09:11:40;;;;;;;;;2.00;0.67;;;;;;;;5087056;27;46236;-52
2024/03/31 09:14:06;;;;;;;;;1.00;1.00;;;;;;;;5090194;27;46567;-52
2024/03/31 09:16:32;;;;;;;;;1.00;1.00;;;;;;;;5099150;27;45378;-52
2024/03/31 09:18:57;;;;;;;;;1.00;0.67;;;;;;;;5098774;27;45351;-52
2024/03/31 09:21:22;;;;;;;;;0.67;0.00;;;;;;;;5097809;27;45290;-50
2024/03/31 09:23:47;;;;;;;;;0.00;0.00;;;;;;;;5080984;27;46230;-52
2024/03/31 09:26:13;;;;;;;;;1.33;1.33;;;;;;;;5079044;27;45387;-53
2024/03/31 09:28:38;;;;;;;;;2.00;0.00;;;;;;;;5102883;27;45756;-53
2024/03/31 09:31:03;;;;;;;;;0.00;0.00;;;;;;;;5102593;27;45374;-53
2024/03/31 09:33:37;;;;;;;;;1.25;0.25;;;;;;;;5102368;27;46191;-53
2024/03/31 09:36:02;;;;;;;;;1.50;1.00;;;;;;;;5101903;27;45252;-52
2024/03/31 09:38:28;;;;;;;;;0.75;0.75;;;;;;;;5103063;27;45338;-51
2024/03/31 09:40:54;;;;;;;;;1.50;1.00;;;;;;;;5089618;27;45574;-53
2024/03/31 09:43:19;;;;;;;;;5.00;1.00;;;;;;;;5092400;27;45566;-53
2024/03/31 09:45:45;;;;;;;;;3.00;1.00;;;;;;;;5099090;27;45493;-53
2024/03/31 09:48:16;;;;;;;;;0.00;0.00;;;;;;;;5084061;27;45357;-49
2024/03/31 09:50:42;;;;;;;;;0.00;0.00;;;;;;;;5083946;27;45315;-52
2024/03/31 09:53:10;;;;;;;;;1.00;0.00;;;;;;;;5102026;27;46484;-48
2024/03/31 09:55:39;;;;;;;;;0.00;0.00;;;;;;;;5084003;27;45277;-47
2024/03/31 09:58:08;;;;;;;;;0.00;0.00;;;;;;;;5102165;27;45485;-50
2024/03/31 10:00:34;;;;;;;;;0.00;0.00;;;;;;;;5101921;27;45341;-52
2024/03/31 10:03:02;;;;;;;;;0.00;0.00;;;;;;;;5102517;27;45390;-51
2024/03/31 10:05:34;;;;;;;;;1.00;0.00;;;;;;;;5087486;27;45527;-50
2024/03/31 10:07:59;;;;;;;;;0.00;0.00;;;;;;;;5084203;27;45377;-49
2024/03/31 10:10:26;;;;;;;;;0.00;0.00;;;;;;;;5098747;27;45327;-49
2024/03/31 10:12:53;;;;;;;;;0.00;0.00;;;;;;;;5099207;27;45461;-50
2024/03/31 10:15:19;;;;;;;;;0.00;0.00;;;;;;;;5101388;27;45382;-52
2024/03/31 10:17:44;;;;;;;;;0.00;0.00;;;;;;;;5098856;27;45249;-50
2024/03/31 10:20:10;;;;;;;;;0.00;0.00;;;;;;;;5098052;27;45294;-51
2024/03/31 10:22:37;;;;;;;;;0.00;0.00;;;;;;;;5098569;27;45610;-53
2024/03/31 10:25:02;;;;;;;;;0.00;0.00;;;;;;;;5079246;27;45761;-52
2024/03/31 10:27:28;;;;;;;;;2.25;0.25;;;;;;;;5098810;27;45595;-51
2024/03/31 10:29:55;;;;;;;;;0.00;0.00;;;;;;;;5096779;27;46680;-47
2024/03/31 10:32:20;;;;;;;;;0.00;0.00;;;;;;;;5101562;27;45367;-49
2024/03/31 10:34:45;;;;;;;;;0.00;0.00;;;;;;;;5095325;27;45303;-51
2024/03/31 10:37:11;;;;;;;;;0.00;0.00;;;;;;;;5101783;27;45391;-52
2024/03/31 10:39:36;;;;;;;;;0.00;0.00;;;;;;;;5094959;27;45438;-51
2024/03/31 10:42:02;;;;;;;;;0.00;0.00;;;;;;;;5097629;27;45601;-50
2024/03/31 10:44:27;;;;;;;;;1.00;0.00;;;;;;;;5095187;27;45402;-50
2024/03/31 10:46:53;;;;;;;;;0.00;0.00;;;;;;;;5102033;27;45314;-51
2024/03/31 10:49:18;;;;;;;;;0.00;0.00;;;;;;;;5097891;27;45372;-49
2024/03/31 10:51:43;;;;;;;;;0.00;0.00;;;;;;;;5098519;27;45374;-50
2024/03/31 10:54:27;;;;;;;;;0.00;0.00;;;;;;;;5098122;27;45209;-51
2024/03/31 10:56:58;;;;;;;;;1.00;0.00;;;;;;;;5079803;27;45385;-52
2024/03/31 10:59:26;;;;;;;;;0.00;0.00;;;;;;;;5100092;27;45973;-48
2024/03/31 11:01:51;;;;;;;;;0.00;0.00;;;;;;;;5099376;27;45410;-51
2024/03/31 11:04:17;;;;;;;;;0.00;0.00;;;;;;;;5100511;27;45433;-51
2024/03/31 11:06:42;;;;;;;;;0.00;0.00;;;;;;;;5092565;27;45254;-49
2024/03/31 11:09:07;;;;;;;;;0.00;0.00;;;;;;;;5098266;27;45422;-52
2024/03/31 11:11:33;;;;;;;;;0.00;0.00;;;;;;;;5101200;27;46370;-51
2024/03/31 11:13:58;;;;;;;;;0.00;0.00;;;;;;;;5101147;27;45279;-51
2024/03/31 11:16:23;;;;;;;;;1.50;0.00;;;;;;;;5099654;27;45443;-51
2024/03/31 11:18:51;;;;;;;;;0.00;0.00;;;;;;;;5095324;27;45885;-52
2024/03/31 11:21:17;;;;;;;;;0.00;0.00;;;;;;;;5097015;27;45513;-51
2024/03/31 11:23:42;;;;;;;;;1.00;1.00;;;;;;;;5097622;27;45387;-51
2024/03/31 11:26:08;;;;;;;;;0.00;0.00;;;;;;;;5097652;27;45368;-50
2024/03/31 11:28:35;;;;;;;;;0.00;0.00;;;;;;;;5082542;27;45391;-47
2024/03/31 11:31:01;;;;;;;;;0.00;0.00;;;;;;;;5098111;27;46560;-51
2024/03/31 11:33:27;;;;;;;;;0.00;0.00;;;;;;;;5099361;27;45262;-52
2024/03/31 11:35:53;;;;;;;;;0.75;0.00;;;;;;;;5099127;27;45763;-49
2024/03/31 11:38:21;;;;;;;;;0.75;0.00;;;;;;;;5096190;27;45553;-51
2024/03/31 11:40:46;;;;;;;;;0.25;0.25;;;;;;;;5098446;27;47334;-51
2024/03/31 11:43:11;;;;;;;;;1.75;0.00;;;;;;;;5098967;27;45814;-52
2024/03/31 11:45:37;;;;;;;;;0.00;0.00;;;;;;;;5097635;27;45196;-53
2024/03/31 11:48:03;;;;;;;;;0.00;0.00;;;;;;;;5100503;27;45313;-52
2024/03/31 11:50:29;;;;;;;;;0.00;0.00;;;;;;;;5094223;27;46413;-52
2024/03/31 11:52:54;;;;;;;;;0.00;0.00;;;;;;;;5096039;27;45366;-52
2024/03/31 11:55:19;;;;;;;;;0.25;0.00;;;;;;;;5100231;27;45801;-51
2024/03/31 11:57:45;;;;;;;;;1.00;1.00;;;;;;;;5097457;27;45563;-51
2024/03/31 12:00:17;;;;;;;;;0.00;0.00;;;;;;;;5078053;27;46139;-52
2024/03/31 12:02:42;;;;;;;;;1.00;1.00;;;;;;;;5096947;27;45269;-52
2024/03/31 12:05:20;;;;;;;;;1.00;1.00;;;;;;;;5094501;27;45266;-51
2024/03/31 12:07:46;;;;;;;;;0.00;0.00;;;;;;;;5095768;27;45465;-52
2024/03/31 12:10:12;;;;;;;;;0.00;0.00;;;;;;;;5091642;27;45364;-52
2024/03/31 12:12:38;;;;;;;;;0.00;0.00;;;;;;;;5091336;27;45380;-52
2024/03/31 12:15:03;;;;;;;;;0.25;0.25;;;;;;;;5076969;27;45350;-50
2024/03/31 12:17:29;;;;;;;;;0.00;0.00;;;;;;;;5095780;27;45568;-52
2024/03/31 12:19:54;;;;;;;;;0.25;0.25;;;;;;;;5095182;27;45248;-50
2024/03/31 12:22:19;;;;;;;;;1.25;0.75;;;;;;;;5099795;27;45424;-50
2024/03/31 12:24:44;;;;;;;;;0.00;0.00;;;;;;;;5092429;27;45513;-50
2024/03/31 12:27:10;;;;;;;;;0.00;0.00;;;;;;;;5099185;27;45592;-52
2024/03/31 12:29:41;;;;;;;;;0.00;0.00;;;;;;;;5099811;27;46557;-52
2024/03/31 12:32:08;;;;;;;;;2.00;0.75;;;;;;;;5091615;27;45719;-52
2024/03/31 12:34:33;;;;;;;;;0.00;0.00;;;;;;;;5095877;27;45255;-49
2024/03/31 12:36:58;;;;;;;;;0.00;0.00;;;;;;;;5098672;27;45630;-51
2024/03/31 12:39:28;;;;;;;;;0.75;0.00;;;;;;;;5073347;27;45431;-49
2024/03/31 12:41:53;;;;;;;;;0.00;0.00;;;;;;;;5096373;27;45438;-52
2024/03/31 12:44:18;;;;;;;;;1.00;0.00;;;;;;;;5092546;27;45393;-52
2024/03/31 12:46:44;;;;;;;;;0.00;0.00;;;;;;;;5100292;27;45356;-52
2024/03/31 12:49:09;;;;;;;;;0.00;0.00;;;;;;;;5096029;27;46429;-51
2024/03/31 12:51:34;;;;;;;;;0.50;0.00;;;;;;;;5099662;27;45433;-52
2024/03/31 12:54:00;;;;;;;;;0.00;0.00;;;;;;;;5094712;27;45555;-51
2024/03/31 12:56:25;;;;;;;;;0.00;0.00;;;;;;;;5099453;27;45374;-50
2024/03/31 12:58:52;;;;;;;;;1.75;0.00;;;;;;;;5094615;27;45440;-50
2024/03/31 13:01:18;;;;;;;;;0.00;0.00;;;;;;;;5096893;27;45551;-50
2024/03/31 13:03:43;;;;;;;;;0.00;0.00;;;;;;;;5096841;27;45442;-51
2024/03/31 13:06:09;;;;;;;;;0.00;0.00;;;;;;;;5099024;27;45685;-53
2024/03/31 13:08:34;;;;;;;;;0.00;0.00;;;;;;;;5099501;27;46829;-53
2024/03/31 13:10:59;;;;;;;;;0.25;0.25;;;;;;;;5091213;27;45722;-49
2024/03/31 13:13:25;;;;;;;;;0.00;0.00;;;;;;;;5092886;27;45409;-49
2024/03/31 13:15:50;;;;;;;;;0.75;0.50;;;;;;;;5098162;27;45308;-53
2024/03/31 13:18:15;;;;;;;;;0.00;0.00;;;;;;;;5098964;27;46187;-50
2024/03/31 13:20:40;;;;;;;;;0.50;0.50;;;;;;;;5099120;27;45227;-51
2024/03/31 13:23:05;;;;;;;;;0.00;0.00;;;;;;;;5098024;27;45389;-51
2024/03/31 13:25:33;;;;;;;;;0.00;0.00;;;;;;;;5099362;27;45291;-50
2024/03/31 13:27:59;;;;;;;;;1.00;1.00;;;;;;;;5097811;27;45503;-51
2024/03/31 13:30:25;;;;;;;;;0.25;0.25;;;;;;;;5098751;27;45673;-49
2024/03/31 13:32:50;;;;;;;;;1.00;1.00;;;;;;;;5098080;27;45248;-51
2024/03/31 13:35:15;;;;;;;;;0.75;0.75;;;;;;;;5098607;27;45358;-51
2024/03/31 13:37:41;;;;;;;;;0.25;0.00;;;;;;;;5097677;27;46722;-52
2024/03/31 13:40:06;;;;;;;;;0.50;0.50;;;;;;;;5097781;27;45374;-53
2024/03/31 13:42:31;;;;;;;;;0.00;0.00;;;;;;;;5097338;27;45291;-48
2024/03/31 13:44:57;;;;;;;;;0.00;0.00;;;;;;;;5098238;27;46057;-51
2024/03/31 13:47:22;;;;;;;;;2.00;1.00;;;;;;;;5095886;27;45298;-52
2024/03/31 13:49:47;;;;;;;;;0.00;0.00;;;;;;;;5097632;27;45499;-50
2024/03/31 13:52:12;;;;;;;;;1.75;0.00;;;;;;;;5095881;27;45281;-51
2024/03/31 13:54:37;;;;;;;;;0.00;0.00;;;;;;;;5097503;27;45652;-51
2024/03/31 13:57:02;;;;;;;;;1.67;0.00;;;;;;;;5095835;27;46550;-53
2024/03/31 13:59:28;;;;;;;;;2.00;0.00;;;;;;;;5098786;27;45698;-52
2024/03/31 14:01:53;;;;;;;;;2.33;1.00;;;;;;;;5097914;27;45574;-49
2024/03/31 14:04:18;;;;;;;;;0.00;0.00;;;;;;;;5098005;27;45743;-50
2024/03/31 14:06:43;;;;;;;;;0.67;0.67;;;;;;;;5098674;27;45276;-52
2024/03/31 14:09:10;;;;;;;;;1.33;0.67;;;;;;;;5093791;27;45389;-50
2024/03/31 14:11:35;;;;;;;;;1.67;0.33;;;;;;;;5069788;27;45521;-52
2024/03/31 14:14:00;;;;;;;;;2.33;1.00;;;;;;;;5100034;27;45150;-52
2024/03/31 14:16:26;;;;;;;;;0.33;0.33;;;;;;;;5100023;27;45375;-52
2024/03/31 14:18:51;;;;;;;;;1.00;1.00;;;;;;;;5098970;27;45302;-52
2024/03/31 14:21:16;;;;;;;;;1.00;1.00;;;;;;;;5101788;27;45596;-53
2024/03/31 14:23:42;;;;;;;;;1.00;1.00;;;;;;;;5100427;27;45338;-52
2024/03/31 14:26:09;;;;;;;;;1.00;1.00;;;;;;;;5100247;27;45442;-51
2024/03/31 14:28:34;;;;;;;;;0.00;0.00;;;;;;;;5100752;27;45402;-51
2024/03/31 14:30:59;;;;;;;;;1.33;0.00;;;;;;;;5095546;27;45445;-52